tititudorancea.com
Station Historical Data
Daily Summary for September 8, 2018 Units:  Metric    English   Both
« Previous Day
Next Day »
Daily Weekly Monthly Yearly Custom
  High: Low: Average:
Temperature: -17.8 °C -0.3 °C 8.2 °C
Dew Point: -17.8 °C -1.3 °C 3.2 °C
Humidity: Humidity % 46 % 74 %
Wind Speed: 0 km/h 0 km/h 12.9 km/h
Wind Gust: 0 km/h - -
Wind:- - NW
Pressure: 0 hPa 1014.4 hPa -
Precipitation: 0.2 mm    
Historical Graphs
 
 
Ararat weather Find more about Weather in Ararat, AU


 



 


Tabular Data for September 8, 2018
Time Temperature Dew Point Pressure Wind Wind Speed Wind Gust Humidity Rainfall Rate (Hourly)
-17.8 °C -17.8 °C 0 hPa Calm     Humidity % 0 mm
00:04 3.8 °C 2.6 °C 1017.8 hPa Calm     92 % 0 mm
00:09 3.7 °C 2.6 °C 1017.8 hPa Calm     92 % 0 mm
00:14 3.7 °C 2.6 °C 1017.8 hPa Calm     92 % 0 mm
00:19 3.7 °C 2.5 °C 1017.8 hPa Calm     92 % 0 mm
00:24 3.7 °C 2.7 °C 1017.8 hPa Calm     93 % 0 mm
00:29 3.6 °C 2.4 °C 1017.8 hPa Calm     92 % 0 mm
00:34 3.5 °C 2.3 °C 1017.8 hPa Calm     92 % 0 mm
00:39 3.3 °C 2.1 °C 1017.8 hPa Calm     92 % 0 mm
00:44 3.1 °C 1.9 °C 1017.8 hPa Calm     92 % 0 mm
00:49 2.9 °C 1.6 °C 1017.8 hPa Calm     91 % 0 mm
00:54 2.7 °C 1.5 °C 1017.5 hPa Calm     92 % 0 mm
00:59 2.5 °C 1.3 °C 1017.5 hPa Calm     92 % 0 mm
01:04 2.4 °C 1.3 °C 1017.5 hPa Calm     92 % 0 mm
01:09 2.4 °C 1.2 °C 1017.5 hPa Calm     92 % 0 mm
01:14 2.2 °C 1.1 °C 1017.5 hPa Calm     92 % 0 mm
01:19 2.1 °C 0.9 °C 1017.5 hPa Calm     92 % 0 mm
01:24 2 °C 0.8 °C 1017.5 hPa Calm     92 % 0 mm
01:29 1.9 °C 0.7 °C 1017.5 hPa Calm     92 % 0 mm
01:34 1.8 °C 0.6 °C 1017.5 hPa Calm     92 % 0 mm
01:39 1.8 °C 0.8 °C 1017.5 hPa Calm     93 % 0 mm
01:44 1.7 °C 0.6 °C 1017.5 hPa Calm     92 % 0 mm
01:49 1.6 °C 0.4 °C 1017.5 hPa Calm     92 % 0 mm
01:54 1.6 °C 0.6 °C 1017.5 hPa Calm     93 % 0 mm
01:59 1.7 °C 0.7 °C 1017.2 hPa Calm     93 % 0 mm
02:04 1.8 °C 0.8 °C 1017.2 hPa Calm     93 % 0 mm
02:09 1.7 °C 0.5 °C 1017.2 hPa Calm     92 % 0 mm
02:14 1.5 °C 0.3 °C 1017.2 hPa Calm     92 % 0 mm
02:19 1.3 °C 0.2 °C 1017.2 hPa Calm     92 % 0 mm
02:24 1.2 °C 0 °C 1017.2 hPa Calm     92 % 0 mm
02:29 0.9 °C -0.2 °C 1017.2 hPa Calm     92 % 0 mm
02:34 0.8 °C -0.3 °C 1017.2 hPa Calm     92 % 0 mm
02:39 0.7 °C -0.4 °C 1017.2 hPa Calm     92 % 0 mm
02:44 0.6 °C -0.6 °C 1017.2 hPa Calm     92 % 0 mm
02:49 0.4 °C -0.7 °C 1017.2 hPa Calm     92 % 0 mm
02:54 0.3 °C -0.8 °C 1017.2 hPa Calm     92 % 0 mm
02:59 0.3 °C -0.7 °C 1017.2 hPa Calm     93 % 0 mm
03:04 0.3 °C -0.7 °C 1017.2 hPa Calm     93 % 0 mm
03:09 0.4 °C -0.6 °C 1016.8 hPa Calm     93 % 0 mm
03:14 0.7 °C -0.2 °C 1016.8 hPa Calm     94 % 0 mm
03:19 0.7 °C -0.3 °C 1016.8 hPa Calm     93 % 0 mm
03:24 0.7 °C -0.3 °C 1016.8 hPa Calm     93 % 0 mm
03:29 0.7 °C -0.3 °C 1016.8 hPa Calm     93 % 0 mm
03:34 0.7 °C -0.3 °C 1016.5 hPa Calm     93 % 0 mm
03:39 0.6 °C -0.4 °C 1016.5 hPa Calm     93 % 0 mm
03:44 0.6 °C -0.4 °C 1016.5 hPa Calm     93 % 0 mm
03:49 0.4 °C -0.6 °C 1016.5 hPa Calm     93 % 0 mm
03:54 0.4 °C -0.6 °C 1016.8 hPa Calm     93 % 0 mm
03:59 0.4 °C -0.6 °C 1016.8 hPa Calm     93 % 0 mm
04:04 0.4 °C -0.4 °C 1016.8 hPa Calm     94 % 0 mm
04:09 0.4 °C -0.4 °C 1016.8 hPa Calm     94 % 0 mm
04:14 0.4 °C -0.6 °C 1016.8 hPa Calm     93 % 0 mm
04:19 0.2 °C -0.8 °C 1016.8 hPa Calm     93 % 0 mm
04:24 0.1 °C -0.9 °C 1016.8 hPa Calm     93 % 0 mm
04:29 0 °C -1 °C 1016.8 hPa Calm     93 % 0 mm
04:34 -0.1 °C -1.1 °C 1016.8 hPa Calm     93 % 0 mm
04:39 -0.1 °C -1.1 °C 1016.8 hPa Calm     93 % 0 mm
04:44 -0.1 °C -0.9 °C 1016.8 hPa Calm     94 % 0 mm
04:49 -0.1 °C -0.9 °C 1016.8 hPa Calm     94 % 0 mm
04:54 -0.1 °C -1.1 °C 1016.8 hPa Calm     93 % 0 mm
04:59 -0.2 °C -1.2 °C 1016.8 hPa Calm     93 % 0 mm
05:04 -0.3 °C -1.3 °C 1016.8 hPa Calm     93 % 0 mm
05:09 -0.3 °C -1.2 °C 1016.8 hPa Calm     94 % 0 mm
05:14 -0.1 °C -0.9 °C 1016.8 hPa Calm     94 % 0 mm
05:19 0.1 °C -0.8 °C 1016.8 hPa Calm     94 % 0 mm
05:24 0 °C -0.8 °C 1016.8 hPa Calm     94 % 0 mm
05:29 -0.1 °C -0.9 °C 1017.2 hPa Calm     94 % 0 mm
05:34 0 °C -0.8 °C 1017.2 hPa Calm     94 % 0 mm
05:39 0.1 °C -0.8 °C 1017.2 hPa Calm     94 % 0 mm
05:44 0.1 °C -0.7 °C 1017.2 hPa Calm     94 % 0 mm
05:49 0.2 °C -0.7 °C 1017.2 hPa Calm     94 % 0 mm
05:54 0.2 °C -0.7 °C 1017.2 hPa Calm     94 % 0 mm
05:59 0.1 °C -0.7 °C 1017.2 hPa Calm     94 % 0 mm
06:04 0.1 °C -0.7 °C 1017.2 hPa Calm     94 % 0 mm
06:09 0.1 °C -0.8 °C 1017.2 hPa Calm     94 % 0 mm
06:14 0.1 °C -0.7 °C 1017.2 hPa Calm     94 % 0 mm
06:19 0.2 °C -0.7 °C 1017.2 hPa Calm     94 % 0 mm
06:24 0.3 °C -0.4 °C 1017.2 hPa Calm     95 % 0 mm
06:29 0.3 °C -0.6 °C 1017.2 hPa Calm     94 % 0 mm
06:34 0.4 °C -0.3 °C 1017.5 hPa Calm     95 % 0 mm
06:39 0.7 °C -0.1 °C 1017.5 hPa Calm     95 % 0 mm
06:44 0.7 °C -0.1 °C 1017.5 hPa Calm     94 % 0 mm
06:49 0.8 °C 0.1 °C 1017.2 hPa Calm     95 % 0 mm
06:54 0.9 °C 0.2 °C 1017.2 hPa Calm     95 % 0 mm
06:59 0.9 °C 0.1 °C 1017.2 hPa North 3.7 km/h 2.7 km/h 94 % 0 mm
07:04 1.1 °C 0.3 °C 1017.5 hPa Calm     95 % 0 mm
07:09 1.2 °C 0.5 °C 1017.5 hPa North 1.9 km/h   95 % 0 mm
07:14 1.5 °C 0.8 °C 1017.5 hPa Calm     95 % 0 mm
07:19 1.9 °C 1.2 °C 1017.5 hPa Calm     95 % 0 mm
07:24 2.2 °C 1.4 °C 1017.8 hPa Calm     95 % 0 mm
07:29 2.4 °C 1.7 °C 1017.8 hPa Calm     95 % 0 mm
07:34 2.9 °C 2.3 °C 1017.8 hPa Calm     96 % 0 mm
07:39 3.4 °C 2.8 °C 1017.8 hPa Calm     96 % 0 mm
07:44 3.8 °C 3.2 °C 1017.8 hPa SSW 5.6 km/h 4.3 km/h 96 % 0 mm
07:49 4.2 °C 3.6 °C 1017.8 hPa SSW 6.4 km/h 6.1 km/h 96 % 0 mm
07:54 4.6 °C 4 °C 1017.8 hPa SSW 8 km/h 6 km/h 96 % 0 mm
07:59 4.8 °C 4.1 °C 1017.8 hPa SSW 11.1 km/h 6.4 km/h 95 % 0 mm
08:04 5 °C 4.3 °C 1017.8 hPa SSW 7.4 km/h 4.8 km/h 95 % 0.2 mm
08:09 5.3 °C 4.6 °C 1018.2 hPa SSW 8 km/h 3.5 km/h 95 % 0.2 mm
08:14 5.6 °C 4.9 °C 1017.8 hPa SSW 7.4 km/h 4.7 km/h 95 % 0.2 mm
08:19 5.9 °C 5.2 °C 1017.8 hPa SSW 7.4 km/h 4.5 km/h 95 % 0.2 mm
08:24 6.2 °C 5.3 °C 1017.8 hPa SSW 9.7 km/h 6.3 km/h 94 % 0.2 mm
08:29 6.5 °C 5.6 °C 1017.8 hPa SSW 7.4 km/h 7.4 km/h 94 % 0.2 mm
08:34 6.8 °C 5.7 °C 1017.8 hPa SW 11.1 km/h 7.6 km/h 93 % 0.2 mm
08:39 7.1 °C 5.7 °C 1017.8 hPa SW 11.1 km/h 9.2 km/h 91 % 0.2 mm
08:44 7.3 °C 5.9 °C 1017.8 hPa WSW 11.3 km/h 7.4 km/h 91 % 0.2 mm
08:49 7.4 °C 5.7 °C 1017.8 hPa West 14.8 km/h 8 km/h 89 % 0.2 mm
08:54 7.7 °C 5.8 °C 1017.8 hPa WNW 16.7 km/h 11.6 km/h 88 % 0.2 mm
08:59 8 °C 5.8 °C 1017.8 hPa NNW 16.7 km/h 12.7 km/h 86 % 0.2 mm
09:04 8.3 °C 5.7 °C 1017.8 hPa North 18.5 km/h 11.4 km/h 84 % 0 mm
09:09 8.4 °C 5.7 °C 1017.8 hPa North 18.5 km/h 10.9 km/h 83 % 0 mm
09:14 8.6 °C 5.3 °C 1017.8 hPa NNW 16.7 km/h 10.8 km/h 80 % 0 mm
09:19 8.8 °C 5.6 °C 1017.8 hPa NNW 13 km/h 10.6 km/h 80 % 0 mm
09:24 9.1 °C 5.8 °C 1017.8 hPa North 14.8 km/h 6.4 km/h 80 % 0 mm
09:29 9.2 °C 5.6 °C 1017.8 hPa NNW 13 km/h 9.2 km/h 78 % 0 mm
09:34 9.4 °C 5.8 °C 1017.8 hPa NNW 11.1 km/h 9.7 km/h 78 % 0 mm
09:39 9.5 °C 5.7 °C 1017.8 hPa NNW 13 km/h 6.8 km/h 77 % 0 mm
09:44 9.7 °C 5.6 °C 1017.8 hPa NW 16.7 km/h 10.5 km/h 76 % 0 mm
09:49 9.7 °C 5.5 °C 1017.8 hPa NNW 14.8 km/h 12.4 km/h 75 % 0 mm
09:54 9.8 °C 5.2 °C 1017.8 hPa North 20.4 km/h 11.7 km/h 73 % 0 mm
09:59 9.9 °C 5.3 °C 1018.2 hPa North 18.5 km/h 12.2 km/h 73 % 0 mm
10:04 10.1 °C 5.4 °C 1017.8 hPa North 18.5 km/h 11.6 km/h 73 % 0 mm
10:09 10.2 °C 5.6 °C 1017.8 hPa North 11.3 km/h 10.8 km/h 73 % 0 mm
10:14 10.2 °C 5 °C 1018.2 hPa North 16.7 km/h 13.8 km/h 70 % 0 mm
10:19 10.2 °C 4.7 °C 1017.8 hPa North 14.8 km/h 11.6 km/h 69 % 0 mm
10:24 10.3 °C 4.9 °C 1017.8 hPa North 16.1 km/h 10.3 km/h 69 % 0 mm
10:29 10.5 °C 4.6 °C 1017.8 hPa North 18.5 km/h 11.1 km/h 67 % 0 mm
10:34 10.6 °C 4.4 °C 1018.2 hPa NW 24.1 km/h 18.5 km/h 66 % 0 mm
10:39 10.7 °C 4.6 °C 1018.2 hPa NNW 18.5 km/h 11.4 km/h 66 % 0 mm
10:44 11.1 °C 4.7 °C 1017.8 hPa NNW 20.4 km/h 9.2 km/h 65 % 0 mm
10:49 11.2 °C 4.9 °C 1017.8 hPa North 20.4 km/h 12.9 km/h 65 % 0 mm
10:54 11.2 °C 4.7 °C 1017.8 hPa NW 16.7 km/h 12.9 km/h 64 % 0 mm
10:59 11 °C 4.7 °C 1017.8 hPa North 27.8 km/h 18.3 km/h 65 % 0 mm
11:04 11.1 °C 4.5 °C 1017.8 hPa NNE 24.1 km/h 9.5 km/h 64 % 0 mm
11:09 11 °C 4.9 °C 1017.8 hPa North 18.5 km/h 10.1 km/h 66 % 0 mm
11:14 11.1 °C 4.7 °C 1017.8 hPa NNW 14.8 km/h 10.3 km/h 65 % 0 mm
11:19 11.3 °C 5 °C 1017.8 hPa NNW 16.7 km/h 15.3 km/h 65 % 0 mm
11:24 11.7 °C 5.1 °C 1017.5 hPa North 13 km/h 9.5 km/h 64 % 0 mm
11:29 11.8 °C 5 °C 1017.5 hPa NNE 20.4 km/h 16.3 km/h 63 % 0 mm
11:34 11.8 °C 4.9 °C 1017.5 hPa North 14.8 km/h 8 km/h 63 % 0 mm
11:39 11.4 °C 4.2 °C 1017.5 hPa North 16.7 km/h 11.3 km/h 61 % 0 mm
11:44 11.5 °C 4.2 °C 1017.5 hPa NW 17.7 km/h 9.7 km/h 61 % 0 mm
11:49 11.7 °C 3.9 °C 1017.2 hPa NNW 14.8 km/h 11.4 km/h 59 % 0 mm
11:54 11.7 °C 4.4 °C 1017.2 hPa North 14.8 km/h 11.7 km/h 61 % 0 mm
11:59 11.7 °C 3.9 °C 1017.2 hPa NW 19.3 km/h 13.7 km/h 59 % 0 mm
12:04 11.7 °C 3.9 °C 1017.2 hPa North 16.7 km/h 7.9 km/h 59 % 0 mm
12:09 11.9 °C 4.2 °C 1017.2 hPa NNW 17.7 km/h 9.7 km/h 59 % 0 mm
12:14 11.7 °C 3.9 °C 1017.2 hPa North 18.5 km/h 9.7 km/h 59 % 0 mm
12:19 11.8 °C 4 °C 1016.8 hPa NNW 18.5 km/h 12.7 km/h 59 % 0 mm
12:24 11.8 °C 4.1 °C 1016.8 hPa NNW 16.7 km/h 10.9 km/h 59 % 0 mm
12:29 12 °C 4 °C 1016.8 hPa NNW 16.7 km/h 9 km/h 58 % 0 mm
12:34 12 °C 4 °C 1016.5 hPa NNW 24.1 km/h 8.4 km/h 58 % 0 mm
12:39 12.3 °C 4 °C 1016.5 hPa NNW 22.5 km/h 16.6 km/h 57 % 0 mm
12:44 12.3 °C 4 °C 1016.5 hPa WNW 22.2 km/h 17.1 km/h 57 % 0 mm
12:49 12.3 °C 3.7 °C 1016.5 hPa NNW 18.5 km/h 12.9 km/h 56 % 0 mm
12:54 12.4 °C 3.3 °C 1016.5 hPa North 18.5 km/h 11.9 km/h 54 % 0 mm
12:59 12.8 °C 3.4 °C 1016.5 hPa North 18.5 km/h 13.2 km/h 53 % 0 mm
13:04 12.7 °C 3.4 °C 1016.1 hPa North 18.5 km/h 16.1 km/h 53 % 0 mm
13:09 12.7 °C 3.3 °C 1016.1 hPa North 14.8 km/h 10.5 km/h 53 % 0 mm
13:14 12.6 °C 3.5 °C 1016.1 hPa North 14.8 km/h 5 km/h 54 % 0 mm
13:19 12.7 °C 3.7 °C 1016.1 hPa WNW 25.9 km/h 10.3 km/h 54 % 0 mm
13:24 12.6 °C 3 °C 1015.8 hPa NW 18.5 km/h 13.5 km/h 52 % 0 mm
13:29 12.6 °C 3 °C 1015.8 hPa North 25.9 km/h 18.2 km/h 52 % 0 mm
13:34 12.9 °C 3.1 °C 1015.8 hPa NW 20.4 km/h 19.2 km/h 51 % 0 mm
13:39 12.7 °C 3.1 °C 1015.8 hPa NW 20.4 km/h 11.4 km/h 52 % 0 mm
13:44 12.6 °C 3.3 °C 1015.8 hPa North 22.2 km/h 15.6 km/h 53 % 0 mm
13:49 12.4 °C 3.1 °C 1015.8 hPa North 19.3 km/h 14 km/h 53 % 0 mm
13:54 12.6 °C 3 °C 1015.8 hPa North 18.5 km/h 14.5 km/h 52 % 0 mm
13:59 13.1 °C 3.2 °C 1015.5 hPa NNW 20.9 km/h 15.3 km/h 51 % 0 mm
14:04 13.1 °C 2.8 °C 1015.5 hPa NNW 18.5 km/h 20.1 km/h 50 % 0 mm
14:09 12.9 °C 3.3 °C 1015.5 hPa WNW 20.4 km/h 13.8 km/h 52 % 0 mm
14:14 12.8 °C 2.9 °C 1015.5 hPa WNW 27.8 km/h 24.8 km/h 51 % 0 mm
14:19 13.1 °C 3.2 °C 1015.5 hPa NW 24.1 km/h 15.8 km/h 51 % 0 mm
14:24 13.3 °C 3.4 °C 1015.5 hPa NW 25.9 km/h 20.8 km/h 51 % 0 mm
14:29 13.7 °C 3.8 °C 1015.5 hPa WNW 35.2 km/h 17.5 km/h 51 % 0 mm
14:34 13.4 °C 3.2 °C 1015.1 hPa NW 18.5 km/h 14.6 km/h 50 % 0 mm
14:39 12.9 °C 3.3 °C 1015.1 hPa NW 27.4 km/h 19.8 km/h 52 % 0 mm
14:44 12.9 °C 3.6 °C 1015.1 hPa North 20.4 km/h 14.2 km/h 53 % 0 mm
14:49 13.3 °C 3.4 °C 1015.1 hPa North 25.9 km/h 15.4 km/h 51 % 0 mm
14:54 13.7 °C 3.7 °C 1015.1 hPa North 18.5 km/h 11.7 km/h 51 % 0 mm
14:59 13.9 °C 3.3 °C 1015.1 hPa North 24.1 km/h 13.8 km/h 49 % 0 mm
15:04 14.1 °C 3.3 °C 1015.1 hPa WNW 29.6 km/h 24.1 km/h 48 % 0 mm
15:09 14.2 °C 3.6 °C 1015.1 hPa NW 20.4 km/h 14.6 km/h 49 % 0 mm
15:14 14.3 °C 3.1 °C 1015.1 hPa NW 22.2 km/h 10.3 km/h 47 % 0 mm
15:19 14 °C 3.2 °C 1014.8 hPa North 16.7 km/h 11.3 km/h 48 % 0 mm
15:24 14.2 °C 3.6 °C 1014.8 hPa NW 25.9 km/h 15 km/h 49 % 0 mm
15:29 13.9 °C 3.1 °C 1014.8 hPa NW 27.8 km/h 17.7 km/h 48 % 0 mm
15:34 13.9 °C 3.1 °C 1015.1 hPa NW 31.5 km/h 17.9 km/h 48 % 0 mm
15:39 14.1 °C 2.9 °C 1014.8 hPa NW 25.9 km/h 19 km/h 47 % 0 mm
15:44 14.2 °C 3 °C 1014.8 hPa WNW 29.6 km/h 17.2 km/h 47 % 0 mm
15:49 14.4 °C 3.5 °C 1014.8 hPa WNW 27.8 km/h 20 km/h 48 % 0 mm
15:54 14.3 °C 3.4 °C 1014.8 hPa NW 40.7 km/h 15.1 km/h 48 % 0 mm
15:59 14.2 °C 3.3 °C 1014.8 hPa NW 22.2 km/h 10.1 km/h 48 % 0 mm
16:04 14.3 °C 3.4 °C 1014.8 hPa NW 35.2 km/h 15.8 km/h 48 % 0 mm
16:09 14.2 °C 3.3 °C 1014.8 hPa NW 25.9 km/h 18.7 km/h 48 % 0 mm
16:14 14.4 °C 3.8 °C 1014.8 hPa NW 13 km/h 3.9 km/h 49 % 0 mm
16:19 14.3 °C 3.2 °C 1015.1 hPa North 29.6 km/h 11.9 km/h 47 % 0 mm
16:24 14.1 °C 2.7 °C 1015.1 hPa NW 20.4 km/h 15.1 km/h 46 % 0 mm
16:29 14 °C 2.8 °C 1015.1 hPa WNW 22.5 km/h 19.6 km/h 47 % 0 mm
16:34 13.9 °C 2.8 °C 1015.1 hPa NW 31.5 km/h 20.1 km/h 47 % 0 mm
16:39 14.1 °C 2.9 °C 1015.1 hPa NW 20.9 km/h 16.4 km/h 47 % 0 mm
16:44 14.3 °C 3.2 °C 1014.8 hPa NW 29.6 km/h 15.1 km/h 47 % 0 mm
16:49 14.3 °C 3.2 °C 1015.1 hPa NNW 33.3 km/h 17.7 km/h 47 % 0 mm
16:54 14.2 °C 3.1 °C 1015.1 hPa NNW 31.5 km/h 17.7 km/h 47 % 0 mm
16:59 14.2 °C 3.3 °C 1014.8 hPa NW 22.2 km/h 15.8 km/h 48 % 0 mm
17:04 14.2 °C 3.3 °C 1014.8 hPa North 25.9 km/h 19.2 km/h 48 % 0 mm
17:09 14.1 °C 2.9 °C 1015.1 hPa NW 29.6 km/h 20.4 km/h 47 % 0 mm
17:14 14 °C 3.2 °C 1014.8 hPa NW 25.9 km/h 12.9 km/h 48 % 0 mm
17:19 14 °C 3.2 °C 1015.1 hPa NW 22.2 km/h 16.9 km/h 48 % 0 mm
17:24 14 °C 3.4 °C 1014.8 hPa NW 16.1 km/h 13 km/h 49 % 0 mm
17:29 13.9 °C 3.4 °C 1014.4 hPa North 18.5 km/h 10.8 km/h 49 % 0 mm
17:34 13.8 °C 3.5 °C 1014.8 hPa NW 14.8 km/h 8.7 km/h 50 % 0 mm
17:39 13.6 °C 3.4 °C 1014.8 hPa NW 14.8 km/h 8.9 km/h 50 % 0 mm
17:44 13.6 °C 3.3 °C 1015.1 hPa NNW 18.5 km/h 12.2 km/h 50 % 0 mm
17:49 13.5 °C 3.3 °C 1015.1 hPa NW 16.7 km/h 10.8 km/h 50 % 0 mm
17:54 13.4 °C 3.2 °C 1015.1 hPa NW 11.1 km/h 7.6 km/h 50 % 0 mm
17:59 13.4 °C 3.2 °C 1015.1 hPa NW 16.7 km/h 9 km/h 50 % 0 mm
18:04 13.4 °C 3.2 °C 1015.1 hPa NW 12.9 km/h 11.9 km/h 50 % 0 mm
18:09 13.3 °C 3.1 °C 1015.1 hPa North 18.5 km/h 12.2 km/h 50 % 0 mm
18:14 13.2 °C 3.3 °C 1015.5 hPa NW 18.5 km/h 13.4 km/h 51 % 0 mm
18:19 13.1 °C 3.2 °C 1015.5 hPa NW 11.3 km/h 13 km/h 51 % 0 mm
18:24 13.1 °C 3.2 °C 1015.5 hPa NW 14.8 km/h 11.1 km/h 51 % 0 mm
18:29 13.1 °C 3.4 °C 1015.8 hPa NW 18.5 km/h 6.9 km/h 52 % 0 mm
18:34 13.1 °C 3.2 °C 1015.8 hPa NW 18.5 km/h 9.8 km/h 51 % 0 mm
18:39 12.9 °C 3.3 °C 1015.8 hPa NW 8 km/h 6.1 km/h 52 % 0 mm
18:44 12.9 °C 3.3 °C 1015.8 hPa NW 14.5 km/h 10 km/h 52 % 0 mm
18:49 12.8 °C 3.5 °C 1015.8 hPa NW 14.8 km/h 7.2 km/h 53 % 0 mm
18:54 12.8 °C 3.2 °C 1016.1 hPa NW 18.5 km/h 13.8 km/h 52 % 0 mm
18:59 12.9 °C 3.3 °C 1016.1 hPa North 13 km/h 8 km/h 52 % 0 mm
19:04 13 °C 3.6 °C 1016.1 hPa NW 22.5 km/h 11.9 km/h 53 % 0 mm
19:09 13 °C 3.6 °C 1016.1 hPa NW 22.2 km/h 17.9 km/h 53 % 0 mm
19:14 12.9 °C 3.8 °C 1016.1 hPa WNW 24.1 km/h 17.4 km/h 54 % 0 mm
19:19 12.9 °C 3.8 °C 1016.5 hPa NW 33.3 km/h 22.2 km/h 54 % 0 mm
19:24 12.8 °C 3.9 °C 1016.5 hPa WNW 18.5 km/h 10.9 km/h 55 % 0 mm
19:29 12.5 °C 4.2 °C 1016.5 hPa WNW 18.5 km/h 15.6 km/h 57 % 0 mm
19:34 12.3 °C 4.6 °C 1016.5 hPa NW 22.2 km/h 10.6 km/h 59 % 0 mm
19:39 12.2 °C 4.7 °C 1016.1 hPa North 14.8 km/h 10.5 km/h 60 % 0 mm
19:44 12.1 °C 4.8 °C 1016.5 hPa NW 20.4 km/h 18 km/h 61 % 0 mm
19:49 12.2 °C 4.9 °C 1016.5 hPa WNW 18.5 km/h 14 km/h 61 % 0 mm
19:54 12.2 °C 5.1 °C 1016.5 hPa WNW 18.5 km/h 11.9 km/h 62 % 0 mm
19:59 12 °C 5.2 °C 1016.5 hPa NW 29 km/h 16.7 km/h 63 % 0 mm
20:04 12.1 °C 5.4 °C 1016.8 hPa North 18.5 km/h 13 km/h 64 % 0 mm
20:09 12.1 °C 5.4 °C 1016.8 hPa North 25.9 km/h 14 km/h 64 % 0 mm
20:14 12.1 °C 5.7 °C 1016.8 hPa North 27.8 km/h 12.7 km/h 65 % 0 mm
20:19 11.9 °C 5.6 °C 1016.8 hPa WNW 20.9 km/h 17.7 km/h 65 % 0 mm
20:24 11.8 °C 5.7 °C 1016.8 hPa WNW 22.2 km/h 15.1 km/h 66 % 0 mm
20:29 11.7 °C 5.8 °C 1016.8 hPa WNW 30.6 km/h 16.4 km/h 67 % 0 mm
20:34 11.6 °C 5.9 °C 1016.8 hPa NW 24.1 km/h 13.5 km/h 68 % 0 mm
20:39 11.6 °C 6.1 °C 1017.2 hPa North 25.7 km/h 21.9 km/h 69 % 0 mm
20:44 11.6 °C 6.3 °C 1016.8 hPa North 22.2 km/h 15 km/h 70 % 0 mm
20:49 11.5 °C 6.4 °C 1017.2 hPa North 18.5 km/h 16.6 km/h 71 % 0 mm
20:54 11.4 °C 6.6 °C 1016.8 hPa NW 27.8 km/h 14.2 km/h 72 % 0 mm
20:59 11.3 °C 6.4 °C 1016.8 hPa NW 19.3 km/h 9.7 km/h 72 % 0 mm
21:04 11.2 °C 6.8 °C 1017.2 hPa North 22.2 km/h 13.7 km/h 74 % 0 mm
21:09 11.2 °C 6.8 °C 1016.8 hPa North 27.8 km/h 14.3 km/h 74 % 0 mm
21:14 11.3 °C 7 °C 1016.8 hPa NW 22.2 km/h 11.1 km/h 75 % 0 mm
21:19 11.2 °C 6.9 °C 1016.8 hPa North 16.7 km/h 11.9 km/h 75 % 0 mm
21:24 11.2 °C 7.1 °C 1016.8 hPa NW 17.7 km/h 16.7 km/h 76 % 0 mm
21:29 11.2 °C 7.3 °C 1016.8 hPa NW 31.5 km/h 15.8 km/h 77 % 0 mm
21:34 11.2 °C 7.3 °C 1016.8 hPa North 14.8 km/h 11.3 km/h 77 % 0 mm
21:39 11.1 °C 7.2 °C 1016.8 hPa NW 22.5 km/h 13 km/h 77 % 0 mm
21:44 11.1 °C 7.4 °C 1016.8 hPa NW 18.5 km/h 12.2 km/h 78 % 0 mm
21:49 11.1 °C 7.4 °C 1016.8 hPa North 22.2 km/h 11.7 km/h 78 % 0 mm
21:54 11.1 °C 7.6 °C 1016.8 hPa NNW 18.5 km/h 12.7 km/h 79 % 0 mm
21:59 11.1 °C 7.6 °C 1016.8 hPa NW 16.7 km/h 11.7 km/h 79 % 0 mm
22:04 11.1 °C 7.6 °C 1016.8 hPa North 14.8 km/h 13.7 km/h 79 % 0 mm
22:09 11.1 °C 7.6 °C 1016.8 hPa NW 14.8 km/h 7.7 km/h 79 % 0 mm
22:14 11.1 °C 7.7 °C 1016.8 hPa NW 14.8 km/h 9 km/h 80 % 0 mm
22:19 10.9 °C 7.6 °C 1016.8 hPa North 11.1 km/h 8.7 km/h 80 % 0 mm
22:24 10.9 °C 7.6 °C 1016.8 hPa North 9.3 km/h 6.4 km/h 80 % 0 mm
22:29 10.8 °C 7.7 °C 1016.8 hPa NNW 9.3 km/h 6 km/h 81 % 0 mm
22:34 10.8 °C 7.8 °C 1016.8 hPa NNW 11.1 km/h 7.7 km/h 82 % 0 mm
22:39 10.7 °C 7.8 °C 1016.8 hPa NNW 11.1 km/h 7.7 km/h 82 % 0 mm
22:44 10.6 °C 7.8 °C 1016.8 hPa NNW 18.5 km/h 10.9 km/h 83 % 0 mm
22:49 10.5 °C 7.9 °C 1016.8 hPa North 20.4 km/h 10.5 km/h 84 % 0 mm
22:54 10.3 °C 7.9 °C 1016.8 hPa North 20.9 km/h 12.1 km/h 85 % 0 mm
22:59 10.3 °C 7.9 °C 1016.8 hPa North 14.8 km/h 9.5 km/h 85 % 0 mm
23:04 10.2 °C 8 °C 1016.8 hPa NNW 11.3 km/h 9 km/h 86 % 0 mm
23:09 10.2 °C 7.9 °C 1016.8 hPa NNW 13 km/h 7.1 km/h 86 % 0 mm
23:14 10.2 °C 7.9 °C 1016.8 hPa North 11.1 km/h 7.9 km/h 86 % 0 mm
23:19 10.2 °C 8.2 °C 1016.8 hPa NNW 16.7 km/h 8 km/h 87 % 0 mm
23:24 10.2 °C 8.2 °C 1016.8 hPa NNW 13 km/h 8.2 km/h 87 % 0 mm
23:29 10.2 °C 8.2 °C 1016.8 hPa North 13 km/h 7.4 km/h 87 % 0 mm
23:34 10.2 °C 8.2 °C 1016.8 hPa North 14.5 km/h 9.7 km/h 87 % 0 mm
23:39 10.2 °C 8.2 °C 1016.8 hPa North 14.8 km/h 7.1 km/h 87 % 0 mm
23:44 10.2 °C 8.3 °C 1016.8 hPa NNW 18.5 km/h 8.4 km/h 88 % 0 mm
23:49 10.2 °C 8.3 °C 1016.8 hPa NNW 9.3 km/h 8.2 km/h 88 % 0 mm
23:54 10.2 °C 8.3 °C 1016.8 hPa North 13 km/h 8.5 km/h 88 % 0 mm
23:59 10.4 °C 8.3 °C 1017.2 hPa NW 16.7 km/h 12.6 km/h 87 % 0 mm
Ararat Weather
Compliments of Weather Underground - 2.25 mb
Click here to send mail.


ABOUT

Live weather data from Ararat, Victoria, Australia, 3377
Data uploaded from Cumulus every 5 minutes to Weather Underground.
This site then downloads the raw data for formatting and display.
Metric and imperial data can be displayed. Graphs and historical data available.
Includes Sun and Moon times and rain image live from BOM.

Check out Ararat Weather on Facebook, Twitter and Google +

Help support ongoing costs by checking out the ads





Follow @AraratWeather